Aviation Digital Data Service (ADDS)

Output produced by METARs form (1218 UTC 15 December 2017)
found at http://aviationweather.gov/adds/metars/
 
KMPV 151130Z 1512/1612 VRB03KT P6SM SKC 
     FM152100 16004KT P6SM BKN110 
     FM160800 VRB03KT P6SM VCSH BKN045